Time;durP1;ratioP1;P1;durP2;ratioP2;P2;SDS_P1;SDS_P2;PMS_P1;PMS_P2;Temp;Humidity;BMP_temperature;BMP_pressure;BME280_temperature;BME280_humidity;BME280_pressure;Samples;Min_cycle;Max_cycle;Signal;HPM_P1;HPM_P2
2021/03/20 00:01:34;;;;;;;8.32;3.95;;;3.40;78.00;;;;;;5034049;28;20080;-70
2021/03/20 00:04:02;;;;;;;10.77;3.90;;;3.40;78.30;;;;;;5044372;28;20052;-70
2021/03/20 00:06:42;;;;;;;9.60;4.10;;;3.40;78.50;;;;;;5038899;28;20056;-70
2021/03/20 00:09:13;;;;;;;8.48;4.47;;;3.40;78.60;;;;;;5041570;28;20496;-69
2021/03/20 00:11:42;;;;;;;6.20;4.05;;;3.70;78.40;;;;;;5036579;28;20080;-70
2021/03/20 00:14:11;;;;;;;7.80;3.65;;;3.70;78.30;;;;;;5042798;28;20145;-70
2021/03/20 00:16:38;;;;;;;8.05;4.53;;;3.70;78.10;;;;;;5044787;28;20075;-70
2021/03/20 00:19:04;;;;;;;13.65;4.40;;;3.60;77.90;;;;;;5039463;28;20052;-70
2021/03/20 00:21:31;;;;;;;9.48;4.38;;;3.70;78.20;;;;;;5036898;28;20503;-70
2021/03/20 00:23:58;;;;;;;11.13;4.53;;;3.60;78.20;;;;;;5041686;28;20500;-69
2021/03/20 00:26:24;;;;;;;9.95;4.47;;;3.80;78.90;;;;;;5044279;28;20064;-71
2021/03/20 00:28:52;;;;;;;8.25;4.85;;;3.60;79.00;;;;;;5035122;28;20140;-68
2021/03/20 00:31:19;;;;;;;7.53;4.25;;;3.50;79.50;;;;;;5039481;28;20060;-69
2021/03/20 00:33:46;;;;;;;7.65;4.80;;;3.70;78.90;;;;;;5040741;28;20631;-69
2021/03/20 00:36:14;;;;;;;9.00;4.60;;;3.70;78.90;;;;;;5036347;28;20679;-70
2021/03/20 00:38:44;;;;;;;7.07;4.30;;;3.70;78.70;;;;;;5045038;28;20434;-69
2021/03/20 00:41:11;;;;;;;10.98;4.88;;;3.70;78.70;;;;;;5040561;28;20073;-70
2021/03/20 00:43:38;;;;;;;9.10;4.30;;;3.70;79.60;;;;;;5046172;28;20053;-70
2021/03/20 00:46:08;;;;;;;8.52;4.38;;;3.60;79.30;;;;;;5043742;28;20114;-76
2021/03/20 00:48:38;;;;;;;8.18;4.40;;;3.50;80.00;;;;;;5037135;28;20619;-74
2021/03/20 00:51:06;;;;;;;9.70;4.95;;;3.40;80.60;;;;;;5043427;28;20138;-74
2021/03/20 00:53:33;;;;;;;7.97;4.85;;;3.60;80.80;;;;;;5041381;28;20049;-74
2021/03/20 00:56:00;;;;;;;9.18;4.80;;;3.50;80.70;;;;;;5050782;28;20049;-75
2021/03/20 00:58:34;;;;;;;12.02;5.28;;;3.40;80.50;;;;;;5048018;28;20045;-74
2021/03/20 01:01:22;;;;;;;11.90;5.07;;;3.20;81.00;;;;;;5043534;28;20136;-74
2021/03/20 01:03:49;;;;;;;9.00;5.03;;;3.40;81.70;;;;;;5036942;28;20171;-75
2021/03/20 01:06:25;;;;;;;10.65;5.05;;;3.30;81.20;;;;;;5042150;28;20049;-74
2021/03/20 01:08:52;;;;;;;10.10;5.32;;;3.30;81.20;;;;;;5041298;28;20084;-74
2021/03/20 01:11:20;;;;;;;10.75;5.18;;;3.30;81.30;;;;;;5040959;28;20061;-74
2021/03/20 01:13:46;;;;;;;9.52;4.95;;;3.40;81.40;;;;;;5042693;28;20042;-74
2021/03/20 01:16:13;;;;;;;11.88;5.18;;;3.60;81.60;;;;;;5038424;28;21183;-74
2021/03/20 01:18:41;;;;;;;11.20;5.47;;;3.30;81.20;;;;;;5083455;28;20068;-74
2021/03/20 01:21:09;;;;;;;10.15;5.38;;;3.50;81.00;;;;;;5045165;28;20126;-74
2021/03/20 01:23:36;;;;;;;8.80;5.07;;;3.30;82.30;;;;;;5043142;28;20049;-73
2021/03/20 01:26:03;;;;;;;7.22;4.57;;;3.20;82.30;;;;;;5045955;28;20118;-74
2021/03/20 01:28:33;;;;;;;10.60;5.05;;;3.10;82.10;;;;;;5047553;28;20393;-74
2021/03/20 01:31:00;;;;;;;9.68;4.85;;;3.00;82.30;;;;;;5038517;28;20049;-75
2021/03/20 01:33:28;;;;;;;6.70;4.57;;;3.00;82.50;;;;;;5041909;28;20049;-75
2021/03/20 01:35:55;;;;;;;9.38;5.32;;;2.90;83.10;;;;;;5039052;28;20484;-74
2021/03/20 01:38:22;;;;;;;7.82;4.85;;;3.00;83.70;;;;;;5044711;28;20491;-74
2021/03/20 01:40:58;;;;;;;8.35;4.95;;;3.00;83.60;;;;;;5035033;28;20049;-74
2021/03/20 01:43:27;;;;;;;9.93;5.32;;;3.10;83.90;;;;;;5039265;28;20074;-74
2021/03/20 01:45:54;;;;;;;8.65;5.32;;;2.90;83.20;;;;;;5042610;28;20056;-75
2021/03/20 01:48:35;;;;;;;9.40;5.35;;;2.90;83.80;;;;;;5046125;28;20469;-74
2021/03/20 01:51:04;;;;;;;8.32;4.80;;;2.90;84.20;;;;;;5039017;28;20543;-75
2021/03/20 01:53:43;;;;;;;10.20;5.15;;;2.70;84.40;;;;;;5043131;28;20053;-75
2021/03/20 01:56:17;;;;;;;8.85;4.93;;;2.90;84.70;;;;;;5041589;28;20073;-74
2021/03/20 01:58:45;;;;;;;9.48;5.03;;;2.70;84.80;;;;;;5034928;28;20442;-74
2021/03/20 02:01:26;;;;;;;6.68;4.18;;;2.50;86.30;;;;;;5037174;28;20053;-75
2021/03/20 02:03:53;;;;;;;;;;;2.70;86.20;;;;;;5038919;28;20051;-74
2021/03/20 02:06:21;;;;;;;8.40;4.57;;;2.50;85.40;;;;;;5030730;28;19971;-75
2021/03/20 02:08:49;;;;;;;8.82;4.32;;;2.50;85.30;;;;;;5039378;28;20065;-74
2021/03/20 02:11:36;;;;;;;10.30;5.03;;;2.60;85.20;;;;;;5034313;28;20041;-75
2021/03/20 02:14:26;;;;;;;8.20;4.63;;;2.50;85.80;;;;;;5050180;28;20430;-75
2021/03/20 02:17:22;;;;;;;7.38;4.60;;;2.60;85.70;;;;;;5071378;28;20053;-74
2021/03/20 02:20:17;;;;;;;9.48;4.93;;;2.30;86.10;;;;;;5038155;28;20048;-75
2021/03/20 02:22:56;;;;;;;8.77;4.55;;;2.40;86.00;;;;;;5029618;28;20132;-74
2021/03/20 02:25:43;;;;;;;8.68;4.97;;;2.70;85.90;;;;;;5034576;28;20052;-74
2021/03/20 02:28:26;;;;;;;9.65;5.03;;;2.50;85.40;;;;;;5048381;28;20059;-72
2021/03/20 02:30:58;;;;;;;8.95;5.18;;;2.20;85.60;;;;;;5046289;28;20540;-72
2021/03/20 02:33:44;;;;;;;10.45;5.20;;;2.20;86.50;;;;;;5044917;28;20044;-70
2021/03/20 02:37:01;;;;;;;10.52;5.03;;;2.10;85.80;;;;;;5039656;28;20053;-73
2021/03/20 02:39:39;;;;;;;7.53;4.38;;;2.20;86.20;;;;;;5039334;28;20076;-72
2021/03/20 02:42:15;;;;;;;10.27;4.40;;;2.20;86.30;;;;;;5041731;28;20041;-72
2021/03/20 02:45:08;;;;;;;8.13;4.38;;;2.20;86.00;;;;;;5044045;28;20417;-73
2021/03/20 02:47:42;;;;;;;8.70;4.25;;;2.20;86.40;;;;;;5034362;28;20037;-73
2021/03/20 02:50:40;;;;;;;9.73;4.75;;;2.00;86.70;;;;;;5034480;28;20049;-74
2021/03/20 02:53:44;;;;;;;8.63;4.65;;;2.10;87.20;;;;;;5044109;28;20081;-73
2021/03/20 02:56:16;;;;;;;6.47;4.32;;;2.00;87.20;;;;;;5040296;28;20046;-74
2021/03/20 02:58:51;;;;;;;7.57;4.95;;;1.90;87.40;;;;;;5073430;28;20091;-74
2021/03/20 03:01:22;;;;;;;10.10;4.78;;;1.90;87.50;;;;;;5033131;28;20038;-74
2021/03/20 03:03:51;;;;;;;8.85;4.95;;;1.90;87.50;;;;;;5045908;28;20064;-74
2021/03/20 03:06:34;;;;;;;8.05;4.85;;;2.10;87.60;;;;;;5042053;28;20045;-74
2021/03/20 03:09:07;;;;;;;7.60;4.70;;;2.00;87.60;;;;;;5033860;28;20569;-72
2021/03/20 03:11:44;;;;;;;11.25;4.47;;;2.00;87.20;;;;;;5040499;28;20049;-74
2021/03/20 03:14:17;;;;;;;9.25;4.85;;;2.00;87.20;;;;;;5043129;28;20118;-74
2021/03/20 03:16:57;;;;;;;9.40;4.45;;;2.00;87.60;;;;;;5045187;28;20053;-73
2021/03/20 03:19:29;;;;;;;9.50;4.78;;;2.30;87.60;;;;;;5041295;28;20042;-73
2021/03/20 03:21:59;;;;;;;11.70;5.10;;;1.90;87.30;;;;;;5044381;28;20072;-73
2021/03/20 03:24:28;;;;;;;10.93;4.93;;;2.10;88.10;;;;;;5040764;28;20051;-72
2021/03/20 03:27:01;;;;;;;8.52;5.05;;;2.10;87.20;;;;;;5046941;28;20110;-74
2021/03/20 03:29:32;;;;;;;8.13;4.88;;;2.00;87.40;;;;;;5041920;28;20381;-74
2021/03/20 03:32:07;;;;;;;;;;;2.40;88.00;;;;;;5035376;28;20104;-72
2021/03/20 03:34:54;;;;;;;8.40;4.40;;;1.90;88.00;;;;;;5073333;28;19928;-72
2021/03/20 03:37:37;;;;;;;11.32;4.63;;;2.10;88.00;;;;;;5044748;28;20126;-73
2021/03/20 03:40:14;;;;;;;9.27;4.75;;;1.80;88.70;;;;;;5041359;28;20095;-72
2021/03/20 03:42:40;;;;;;;10.18;4.32;;;2.10;88.70;;;;;;5039033;28;20061;-73
2021/03/20 03:45:11;;;;;;;7.75;4.45;;;2.20;89.20;;;;;;5042758;28;20626;-71
2021/03/20 03:47:37;;;;;;;8.15;5.20;;;2.00;88.00;;;;;;5034700;28;20461;-74
2021/03/20 03:50:18;;;;;;;10.30;4.75;;;2.00;88.00;;;;;;5049197;28;20135;-74
2021/03/20 03:52:44;;;;;;;;;;;1.90;87.90;;;;;;5048782;28;20481;-73
2021/03/20 03:55:12;;;;;;;10.65;5.03;;;2.00;88.30;;;;;;5044551;28;19971;-73
2021/03/20 03:58:11;;;;;;;7.45;4.45;;;1.80;88.60;;;;;;5043098;28;20137;-73
2021/03/20 04:00:42;;;;;;;13.43;5.00;;;1.70;88.60;;;;;;5041410;28;20123;-73
2021/03/20 04:03:36;;;;;;;8.50;4.68;;;1.80;89.00;;;;;;5037962;28;20061;-77
2021/03/20 04:06:23;;;;;;;12.60;5.38;;;1.40;89.70;;;;;;5037020;28;20152;-74
2021/03/20 04:09:18;;;;;;;11.25;4.97;;;1.40;90.20;;;;;;5046471;28;20052;-74
2021/03/20 04:12:03;;;;;;;12.50;4.85;;;1.40;90.70;;;;;;5044299;28;20432;-74
2021/03/20 04:14:52;;;;;;;9.10;4.53;;;1.40;91.00;;;;;;5035037;28;20049;-73
2021/03/20 04:17:45;;;;;;;7.15;4.28;;;1.60;90.70;;;;;;5042122;28;20049;-74
2021/03/20 04:20:20;;;;;;;8.25;4.88;;;1.60;90.50;;;;;;5048497;28;20131;-75
2021/03/20 04:23:07;;;;;;;12.23;5.15;;;1.60;91.00;;;;;;5038565;28;20049;-73
2021/03/20 04:25:58;;;;;;;13.18;5.38;;;1.40;91.10;;;;;;5043392;28;20538;-73
2021/03/20 04:28:30;;;;;;;;;;;1.40;91.70;;;;;;5048454;28;20091;-73
2021/03/20 04:31:22;;;;;;;9.50;5.13;;;1.40;91.90;;;;;;5038272;28;19921;-73
2021/03/20 04:33:56;;;;;;;11.05;4.95;;;1.30;91.90;;;;;;5045356;28;20048;-73
2021/03/20 04:36:30;;;;;;;11.65;5.50;;;1.30;92.40;;;;;;5047650;28;21586;-72
2021/03/20 04:38:59;;;;;;;9.98;5.05;;;1.60;92.50;;;;;;5040454;28;20380;-72
2021/03/20 04:41:27;;;;;;;8.40;5.03;;;1.40;92.60;;;;;;5043923;28;20051;-73
2021/03/20 04:43:54;;;;;;;8.25;5.05;;;1.60;92.00;;;;;;5045634;28;20130;-73
2021/03/20 04:46:24;;;;;;;9.10;5.50;;;1.70;91.60;;;;;;5041913;28;20061;-73
2021/03/20 04:49:15;;;;;;;7.95;4.60;;;1.70;91.50;;;;;;5039131;28;20461;-74
2021/03/20 04:51:49;;;;;;;7.53;4.60;;;1.70;91.70;;;;;;5038958;28;20071;-73
2021/03/20 04:54:19;;;;;;;10.80;5.47;;;2.00;91.50;;;;;;5037119;28;20037;-73
2021/03/20 04:57:03;;;;;;;10.38;5.38;;;1.60;91.20;;;;;;5040791;28;20041;-74
2021/03/20 04:59:55;;;;;;;11.30;5.15;;;1.90;91.30;;;;;;5042626;28;20053;-74
2021/03/20 05:02:24;;;;;;;9.48;5.22;;;1.60;91.40;;;;;;5041724;28;20049;-74
2021/03/20 05:04:56;;;;;;;9.55;5.47;;;1.80;91.60;;;;;;5045231;28;20520;-74
2021/03/20 05:07:23;;;;;;;7.15;4.63;;;1.70;91.30;;;;;;5045259;28;20049;-74
2021/03/20 05:10:00;;;;;;;12.43;5.05;;;1.80;91.10;;;;;;5043860;28;20087;-75
2021/03/20 05:12:33;;;;;;;10.15;5.15;;;2.10;91.40;;;;;;5039979;28;20091;-73
2021/03/20 05:15:04;;;;;;;9.80;5.00;;;1.80;91.20;;;;;;5044886;28;20136;-73
2021/03/20 05:17:32;;;;;;;9.10;4.90;;;1.60;91.40;;;;;;5037383;28;20098;-71
2021/03/20 05:19:59;;;;;;;10.40;5.10;;;1.80;91.80;;;;;;5040116;28;20104;-74
2021/03/20 05:22:30;;;;;;;10.88;5.35;;;1.80;91.30;;;;;;5047663;28;20126;-74
2021/03/20 05:24:59;;;;;;;13.88;5.55;;;1.80;91.60;;;;;;5036869;28;20434;-74
2021/03/20 05:27:29;;;;;;;10.00;5.53;;;1.70;91.80;;;;;;5044713;28;20053;-74
2021/03/20 05:29:56;;;;;;;13.85;5.50;;;1.50;91.90;;;;;;5040089;28;20044;-74
2021/03/20 05:32:26;;;;;;;10.45;5.28;;;1.90;92.60;;;;;;5043558;28;20123;-74
2021/03/20 05:34:53;;;;;;;;;;;1.50;92.30;;;;;;5046405;28;20179;-73
2021/03/20 05:37:31;;;;;;;10.02;5.30;;;1.70;92.60;;;;;;5037615;28;19925;-74
2021/03/20 05:39:58;;;;;;;11.85;5.80;;;1.80;92.00;;;;;;5040703;28;20104;-76
2021/03/20 05:42:31;;;;;;;8.52;5.03;;;2.00;91.90;;;;;;5040986;28;20046;-74
2021/03/20 05:45:09;;;;;;;14.35;5.22;;;1.70;91.80;;;;;;5037396;28;20041;-73
2021/03/20 05:47:50;;;;;;;9.80;5.45;;;1.70;92.00;;;;;;5035097;28;20123;-74
2021/03/20 05:50:35;;;;;;;11.63;5.80;;;1.80;92.10;;;;;;5046064;28;20059;-74
2021/03/20 05:53:10;;;;;;;10.77;5.22;;;1.70;92.20;;;;;;5041516;28;20429;-74
2021/03/20 05:55:53;;;;;;;13.18;5.78;;;1.90;92.20;;;;;;5044103;28;20049;-75
2021/03/20 05:58:35;;;;;;;11.73;5.80;;;1.90;91.70;;;;;;5044623;28;20073;-74
2021/03/20 06:01:14;;;;;;;9.07;5.20;;;2.10;92.00;;;;;;5037999;28;20395;-73
2021/03/20 06:04:05;;;;;;;10.30;5.72;;;1.70;91.90;;;;;;5035443;28;20088;-74
2021/03/20 06:06:51;;;;;;;;;;;1.70;92.00;;;;;;5042546;28;20405;-74
2021/03/20 06:09:40;;;;;;;11.40;4.85;;;1.50;92.10;;;;;;5042883;28;19948;-74
2021/03/20 06:12:31;;;;;;;11.27;5.45;;;1.70;92.60;;;;;;5040487;28;20098;-74
2021/03/20 06:15:13;;;;;;;9.45;4.70;;;2.00;92.10;;;;;;5048575;28;20061;-73
2021/03/20 06:18:18;;;;;;;11.05;5.13;;;1.80;91.50;;;;;;5044122;28;20049;-73
2021/03/20 06:20:53;;;;;;;8.57;5.15;;;1.80;91.20;;;;;;5043584;28;20075;-74
2021/03/20 06:23:31;;;;;;;9.40;5.05;;;2.00;91.00;;;;;;5035774;28;20526;-73
2021/03/20 06:26:23;;;;;;;10.02;5.53;;;2.10;90.90;;;;;;5042632;28;20095;-74
2021/03/20 06:29:00;;;;;;;9.00;5.05;;;1.80;91.10;;;;;;5045644;28;20079;-76
2021/03/20 06:31:36;;;;;;;9.52;4.47;;;2.00;91.10;;;;;;5041898;28;20414;-75
2021/03/20 06:34:12;;;;;;;11.07;5.30;;;2.10;91.10;;;;;;5041910;28;20052;-73
2021/03/20 06:36:46;;;;;;;10.15;5.28;;;2.20;90.80;;;;;;5044375;28;20048;-73
2021/03/20 06:39:34;;;;;;;9.55;5.05;;;2.30;90.70;;;;;;5043622;28;20049;-73
2021/03/20 06:42:15;;;;;;;10.27;4.93;;;2.60;90.20;;;;;;5040489;28;20082;-73
2021/03/20 06:44:44;;;;;;;10.55;4.97;;;2.60;88.80;;;;;;5040776;28;20084;-74
2021/03/20 06:47:23;;;;;;;8.87;5.17;;;2.60;89.60;;;;;;5039845;28;20048;-73
2021/03/20 06:50:08;;;;;;;10.68;4.88;;;2.70;88.50;;;;;;5034512;28;20049;-73
2021/03/20 06:52:37;;;;;;;10.02;4.85;;;2.40;88.30;;;;;;5049787;28;20072;-73
2021/03/20 06:55:27;;;;;;;12.00;5.20;;;2.40;89.10;;;;;;5044259;28;20098;-73
2021/03/20 06:57:57;;;;;;;8.05;4.80;;;2.40;88.20;;;;;;5035736;28;20382;-73
2021/03/20 07:00:35;;;;;;;8.55;4.63;;;2.70;86.70;;;;;;5038786;28;20461;-73
2021/03/20 07:03:35;;;;;;;7.57;4.57;;;2.60;86.20;;;;;;5041525;28;20222;-73
2021/03/20 07:06:14;;;;;;;;;;;2.60;86.10;;;;;;5045768;28;20337;-73
2021/03/20 07:09:03;;;;;;;7.43;4.25;;;2.90;86.10;;;;;;5039301;28;20330;-75
2021/03/20 07:12:01;;;;;;;8.20;4.70;;;2.80;86.60;;;;;;5042687;28;20481;-73
2021/03/20 07:14:41;;;;;;;10.20;4.30;;;2.70;86.00;;;;;;5037421;28;20076;-74
2021/03/20 07:17:25;;;;;;;8.75;4.60;;;2.50;86.10;;;;;;5044749;28;20053;-72
2021/03/20 07:20:00;;;;;;;8.35;4.53;;;2.80;87.60;;;;;;5045410;28;20041;-74
2021/03/20 07:22:48;;;;;;;9.43;5.03;;;2.90;85.80;;;;;;5043781;28;20049;-73
2021/03/20 07:25:39;;;;;;;7.93;4.97;;;2.90;84.60;;;;;;5033707;28;20057;-72
2021/03/20 07:28:23;;;;;;;10.25;4.47;;;3.80;83.60;;;;;;5041157;28;20063;-73
2021/03/20 07:30:58;;;;;;;8.43;4.18;;;4.10;77.80;;;;;;5054313;28;20459;-73
2021/03/20 07:33:27;;;;;;;7.60;4.32;;;4.60;78.70;;;;;;5043181;28;20041;-73
2021/03/20 07:36:14;;;;;;;7.70;4.68;;;4.20;77.00;;;;;;5038810;28;20041;-71
2021/03/20 07:38:40;;;;;;;7.13;4.30;;;3.60;79.50;;;;;;5040621;28;20079;-73
2021/03/20 07:41:13;;;;;;;10.77;4.47;;;3.90;80.90;;;;;;5040130;28;20396;-73
2021/03/20 07:43:40;;;;;;;9.85;4.40;;;5.40;75.90;;;;;;5036211;28;20049;-73
2021/03/20 07:46:14;;;;;;;10.20;4.50;;;6.30;71.80;;;;;;5042020;28;20083;-71
2021/03/20 07:48:43;;;;;;;5.47;4.10;;;6.90;68.30;;;;;;5044461;28;20135;-73
2021/03/20 07:51:11;;;;;;;7.93;4.35;;;6.40;67.80;;;;;;5040215;28;20127;-73
2021/03/20 07:53:50;;;;;;;7.40;4.32;;;6.60;67.90;;;;;;5038080;28;20091;-73
2021/03/20 07:56:36;;;;;;;5.72;3.67;;;6.90;64.90;;;;;;5036110;28;20052;-73
2021/03/20 07:59:20;;;;;;;5.43;3.40;;;6.50;64.60;;;;;;5034490;28;20054;-73
2021/03/20 08:01:53;;;;;;;5.03;3.33;;;6.30;64.00;;;;;;5042906;28;20072;-75
2021/03/20 08:04:51;;;;;;;5.35;3.50;;;7.30;62.30;;;;;;5041065;28;20057;-75
2021/03/20 08:07:35;;;;;;;4.40;3.10;;;9.10;58.80;;;;;;5046317;28;20053;-75
2021/03/20 08:10:16;;;;;;;5.05;3.00;;;9.90;54.70;;;;;;5043615;28;20077;-73
2021/03/20 08:12:59;;;;;;;4.22;2.80;;;9.10;52.50;;;;;;5038204;28;20110;-74
2021/03/20 08:15:39;;;;;;;5.53;2.97;;;7.00;56.40;;;;;;5041789;28;20455;-73
2021/03/20 08:18:21;;;;;;;4.55;2.60;;;7.60;57.20;;;;;;5044652;28;20858;-74
2021/03/20 08:20:59;;;;;;;5.28;2.63;;;8.60;54.10;;;;;;5039934;28;20076;-74
2021/03/20 08:23:44;;;;;;;6.32;3.17;;;8.90;52.00;;;;;;5037799;28;20123;-73
2021/03/20 08:26:29;;;;;;;3.30;2.35;;;9.30;52.10;;;;;;5044987;28;20076;-73
2021/03/20 08:28:59;;;;;;;4.60;2.83;;;7.00;51.60;;;;;;5041034;28;20107;-74
2021/03/20 08:31:50;;;;;;;4.97;2.80;;;6.90;55.70;;;;;;5035932;28;20481;-73
2021/03/20 08:34:33;;;;;;;5.03;3.22;;;8.70;53.50;;;;;;5045661;28;20072;-74
2021/03/20 08:37:34;;;;;;;9.73;3.20;;;9.50;52.10;;;;;;5037945;28;20056;-74
2021/03/20 08:40:28;;;;;;;3.72;2.40;;;8.80;52.10;;;;;;5036942;28;20057;-74
2021/03/20 08:43:00;;;;;;;3.08;2.28;;;8.80;49.70;;;;;;5033422;28;20041;-73
2021/03/20 08:45:48;;;;;;;5.13;2.60;;;8.80;48.70;;;;;;5046244;28;20061;-74
2021/03/20 08:48:21;;;;;;;5.82;2.78;;;9.00;49.50;;;;;;5043652;28;20481;-73
2021/03/20 08:51:06;;;;;;;6.03;3.78;;;8.80;50.10;;;;;;5046920;28;20140;-73
2021/03/20 08:54:04;;;;;;;4.57;2.72;;;8.70;50.50;;;;;;5034670;28;20072;-72
2021/03/20 08:56:58;;;;;;;3.17;1.90;;;9.30;49.00;;;;;;5039142;28;20053;-74
2021/03/20 08:59:37;;;;;;;4.18;2.88;;;8.30;45.20;;;;;;5045644;28;20103;-74
2021/03/20 09:02:22;;;;;;;3.55;2.22;;;7.90;44.50;;;;;;5038432;28;20112;-73
2021/03/20 09:04:52;;;;;;;3.75;1.33;;;8.40;45.10;;;;;;5042163;28;20382;-74
2021/03/20 09:07:22;;;;;;;2.40;1.25;;;8.20;41.30;;;;;;5044294;28;20049;-74
2021/03/20 09:09:54;;;;;;;2.88;1.17;;;8.10;40.90;;;;;;5040055;28;20060;-73
2021/03/20 09:12:40;;;;;;;2.92;1.40;;;8.20;39.90;;;;;;5043273;28;20053;-74
2021/03/20 09:15:29;;;;;;;1.88;1.17;;;8.20;39.20;;;;;;5042370;28;20041;-74
2021/03/20 09:17:59;;;;;;;3.17;1.27;;;7.90;38.90;;;;;;5042358;28;20084;-74
2021/03/20 09:20:43;;;;;;;1.95;1.02;;;8.00;37.90;;;;;;5051873;28;20053;-74
2021/03/20 09:23:26;;;;;;;1.83;1.15;;;7.80;36.40;;;;;;5046810;28;20056;-74
2021/03/20 09:25:55;;;;;;;2.05;0.98;;;8.10;37.10;;;;;;5041178;28;20360;-74
2021/03/20 09:28:31;;;;;;;1.52;1.00;;;8.90;33.70;;;;;;5040607;28;20069;-73
2021/03/20 09:31:22;;;;;;;2.42;1.25;;;8.30;32.30;;;;;;5041421;28;20088;-74
2021/03/20 09:33:49;;;;;;;0.85;0.70;;;8.80;32.20;;;;;;5041882;28;20057;-75
2021/03/20 09:36:21;;;;;;;2.20;0.80;;;9.70;29.90;;;;;;5048464;28;20369;-73
2021/03/20 09:38:52;;;;;;;2.95;1.00;;;8.80;28.90;;;;;;5047557;28;20095;-72
2021/03/20 09:41:21;;;;;;;2.00;0.95;;;8.90;29.80;;;;;;5038626;28;20490;-73
2021/03/20 09:43:59;;;;;;;2.30;1.03;;;9.00;29.70;;;;;;5036780;28;20388;-73
2021/03/20 09:46:26;;;;;;;4.53;1.08;;;9.30;30.50;;;;;;5043271;28;20052;-74
2021/03/20 09:48:54;;;;;;;3.95;0.80;;;9.60;30.20;;;;;;5037784;28;21056;-73
2021/03/20 09:51:56;;;;;;;1.35;1.00;;;10.10;29.30;;;;;;5049438;28;20045;-74
2021/03/20 09:54:30;;;;;;;1.90;1.13;;;10.90;29.10;;;;;;5046124;28;20072;-73
2021/03/20 09:57:06;;;;;;;1.73;1.05;;;13.00;27.80;;;;;;5041903;28;20103;-73
2021/03/20 09:59:35;;;;;;;0.80;0.80;;;11.20;26.70;;;;;;5045308;28;20064;-72
2021/03/20 10:02:10;;;;;;;3.03;1.20;;;9.20;29.20;;;;;;5045479;28;20055;-75
2021/03/20 10:04:55;;;;;;;3.53;1.70;;;10.20;28.40;;;;;;5046862;28;20420;-73
2021/03/20 10:07:22;;;;;;;1.58;0.90;;;10.30;27.50;;;;;;5047336;28;20063;-75
2021/03/20 10:10:03;;;;;;;1.30;0.70;;;10.70;27.80;;;;;;5048497;28;20114;-75
2021/03/20 10:12:35;;;;;;;1.20;0.88;;;11.50;25.80;;;;;;5042780;28;20139;-75
2021/03/20 10:15:23;;;;;;;1.48;0.98;;;11.40;26.10;;;;;;5045363;28;20046;-76
2021/03/20 10:18:05;;;;;;;2.08;1.00;;;9.90;27.80;;;;;;5043799;28;20052;-76
2021/03/20 10:20:51;;;;;;;2.63;1.00;;;8.50;29.20;;;;;;5053110;28;20070;-74
2021/03/20 10:23:40;;;;;;;4.97;1.20;;;8.10;30.10;;;;;;5041703;28;20119;-74
2021/03/20 10:26:22;;;;;;;2.30;1.02;;;7.80;29.30;;;;;;5045444;28;20049;-74
2021/03/20 10:28:55;;;;;;;1.80;0.95;;;7.70;29.30;;;;;;5037637;28;20102;-74
2021/03/20 10:31:22;;;;;;;0.60;0.60;;;8.20;29.20;;;;;;5043037;28;20044;-75
2021/03/20 10:33:59;;;;;;;1.40;0.82;;;9.50;27.90;;;;;;5045107;28;20056;-75
2021/03/20 10:36:32;;;;;;;3.75;1.00;;;9.70;27.10;;;;;;5049951;28;20128;-75
2021/03/20 10:39:31;;;;;;;3.38;0.90;;;9.30;27.40;;;;;;5045342;28;20060;-73
2021/03/20 10:42:21;;;;;;;0.88;0.70;;;10.40;27.20;;;;;;5043137;28;20161;-73
2021/03/20 10:44:59;;;;;;;2.05;0.75;;;11.60;25.50;;;;;;5046663;28;20084;-74
2021/03/20 10:47:38;;;;;;;2.05;1.02;;;11.60;24.70;;;;;;5043411;28;20049;-72
2021/03/20 10:50:18;;;;;;;;;;;9.60;26.90;;;;;;5045574;28;20128;-73
2021/03/20 10:52:45;;;;;;;0.70;0.55;;;8.20;27.00;;;;;;5072436;28;20046;-72
2021/03/20 10:55:16;;;;;;;1.80;0.70;;;8.60;26.50;;;;;;5041953;28;20700;-74
2021/03/20 10:57:44;;;;;;;1.08;0.70;;;8.70;26.70;;;;;;5036128;28;20046;-73
2021/03/20 11:00:22;;;;;;;1.33;0.73;;;9.90;26.90;;;;;;5036326;28;20483;-73
2021/03/20 11:02:49;;;;;;;1.30;0.85;;;9.30;26.10;;;;;;5032803;28;20106;-72
2021/03/20 11:05:22;;;;;;;1.80;0.73;;;8.40;27.00;;;;;;5033393;28;20102;-74
2021/03/20 11:07:52;;;;;;;0.93;0.60;;;8.60;27.60;;;;;;5031368;28;20136;-73
2021/03/20 11:10:29;;;;;;;2.53;0.80;;;8.60;27.40;;;;;;5033813;28;20110;-74
2021/03/20 11:13:00;;;;;;;2.25;0.90;;;8.40;27.80;;;;;;5032402;28;20110;-75
2021/03/20 11:15:29;;;;;;;1.88;0.98;;;8.30;27.60;;;;;;5031731;28;20112;-75
2021/03/20 11:17:57;;;;;;;2.50;0.80;;;7.70;27.80;;;;;;5034411;28;20098;-74
2021/03/20 11:20:32;;;;;;;0.88;0.80;;;7.60;28.30;;;;;;5032151;28;20837;-73
2021/03/20 11:22:59;;;;;;;1.10;0.80;;;8.10;29.20;;;;;;5032215;28;20173;-73
2021/03/20 11:25:36;;;;;;;2.92;1.20;;;8.30;29.00;;;;;;5036407;28;20117;-74
2021/03/20 11:28:13;;;;;;;2.08;1.08;;;8.70;29.50;;;;;;5030986;28;20048;-73
2021/03/20 11:30:48;;;;;;;4.63;0.90;;;10.10;27.60;;;;;;5020722;28;20053;-73
2021/03/20 11:33:20;;;;;;;1.10;0.90;;;10.60;27.30;;;;;;5036014;28;20048;-73
2021/03/20 11:35:54;;;;;;;3.47;1.52;;;10.40;27.40;;;;;;5036183;28;20057;-74
2021/03/20 11:38:21;;;;;;;2.17;0.98;;;10.50;27.40;;;;;;5032024;28;20107;-73
2021/03/20 11:40:54;;;;;;;2.58;0.90;;;11.00;27.50;;;;;;5032276;28;20072;-72
2021/03/20 11:43:25;;;;;;;1.42;1.13;;;12.30;27.00;;;;;;5036685;28;20186;-73
2021/03/20 11:45:55;;;;;;;2.78;0.80;;;12.10;26.10;;;;;;5030067;28;20056;-73
2021/03/20 11:48:43;;;;;;;8.23;1.38;;;12.20;26.70;;;;;;5029877;28;20574;-74
2021/03/20 11:51:41;;;;;;;2.65;1.13;;;12.60;26.70;;;;;;5032438;28;20492;-80
2021/03/20 11:54:25;;;;;;;1.33;1.00;;;12.40;26.20;;;;;;5033343;28;20080;-76
2021/03/20 11:56:59;;;;;;;1.20;0.82;;;12.30;24.90;;;;;;5034827;28;20159;-75
2021/03/20 11:59:42;;;;;;;2.47;1.23;;;12.30;25.50;;;;;;5032678;28;20421;-78
2021/03/20 12:02:30;;;;;;;3.03;0.88;;;12.90;25.50;;;;;;5035208;28;20460;-78
2021/03/20 12:05:15;;;;;;;3.15;1.02;;;12.50;24.80;;;;;;5032063;28;20068;-78
2021/03/20 12:07:42;;;;;;;4.97;1.02;;;12.50;25.20;;;;;;5033613;28;20057;-77
2021/03/20 12:10:23;;;;;;;1.88;1.10;;;11.90;25.60;;;;;;5034098;28;20050;-75
2021/03/20 12:12:56;;;;;;;4.28;1.05;;;11.80;25.60;;;;;;5035518;28;20048;-74
2021/03/20 12:15:24;;;;;;;2.22;1.05;;;11.20;25.80;;;;;;5036740;28;20381;-75
2021/03/20 12:17:54;;;;;;;2.22;0.90;;;11.60;25.40;;;;;;5034996;28;20112;-80
2021/03/20 12:20:26;;;;;;;2.20;1.27;;;11.30;25.70;;;;;;5036604;28;20063;-78
2021/03/20 12:22:55;;;;;;;1.92;1.10;;;11.60;25.50;;;;;;5038013;28;20113;-80
2021/03/20 12:25:24;;;;;;;2.15;1.10;;;11.80;26.30;;;;;;5037274;28;20096;-79
2021/03/20 12:27:54;;;;;;;4.22;1.08;;;12.10;25.60;;;;;;5035739;28;20140;-78
2021/03/20 12:30:31;;;;;;;3.17;0.90;;;12.10;25.50;;;;;;5035423;28;20057;-78
2021/03/20 12:33:10;;;;;;;2.15;0.95;;;12.00;25.90;;;;;;5041165;28;20092;-81
2021/03/20 12:35:49;;;;;;;5.22;1.30;;;13.70;26.20;;;;;;5036738;28;20057;-81
2021/03/20 12:38:27;;;;;;;1.48;1.05;;;14.10;25.60;;;;;;5036627;28;21259;-79
2021/03/20 12:41:00;;;;;;;1.65;0.90;;;14.90;24.70;;;;;;5036357;28;20052;-77
2021/03/20 12:43:34;;;;;;;2.38;1.10;;;15.70;25.60;;;;;;5037932;28;20080;-81
2021/03/20 12:46:04;;;;;;;1.90;1.30;;;16.10;25.00;;;;;;5036075;28;20068;-75
2021/03/20 12:48:32;;;;;;;2.65;1.40;;;15.90;25.40;;;;;;5037795;28;20049;-70
2021/03/20 12:51:06;;;;;;;2.72;1.40;;;14.50;25.30;;;;;;5035494;28;20835;-70
2021/03/20 12:53:32;;;;;;;2.33;1.30;;;14.00;26.40;;;;;;5033796;28;20076;-70
2021/03/20 12:55:58;;;;;;;4.60;1.63;;;13.90;27.90;;;;;;5035627;28;20110;-76
2021/03/20 12:58:25;;;;;;;2.65;1.25;;;14.20;27.90;;;;;;5038131;28;20053;-74
2021/03/20 13:00:52;;;;;;;3.60;1.58;;;14.60;27.30;;;;;;5032979;28;20049;-69
2021/03/20 13:03:20;;;;;;;3.83;1.50;;;14.80;26.60;;;;;;5032512;28;20144;-69
2021/03/20 13:05:47;;;;;;;1.95;1.10;;;14.60;27.00;;;;;;5035143;28;20061;-69
2021/03/20 13:08:14;;;;;;;2.60;1.40;;;14.70;27.20;;;;;;5040058;28;20076;-70
2021/03/20 13:10:41;;;;;;;1.92;1.35;;;14.40;27.60;;;;;;5034514;28;20073;-69
2021/03/20 13:13:08;;;;;;;2.58;1.40;;;14.70;26.40;;;;;;5034704;28;20451;-70
2021/03/20 13:15:35;;;;;;;2.42;1.40;;;15.10;26.60;;;;;;5034028;28;20103;-70
2021/03/20 13:18:01;;;;;;;3.47;1.77;;;16.00;26.00;;;;;;5037191;28;20437;-71
2021/03/20 13:20:43;;;;;;;7.13;3.55;;;14.70;26.20;;;;;;5036213;28;21501;-69
2021/03/20 13:23:11;;;;;;;11.95;4.50;;;15.10;27.10;;;;;;5033577;28;20053;-67
2021/03/20 13:25:40;;;;;;;19.02;8.00;;;13.20;26.80;;;;;;5033222;28;20569;-69
2021/03/20 13:28:09;;;;;;;2.90;1.67;;;12.60;28.30;;;;;;5036616;28;20575;-69
2021/03/20 13:30:39;;;;;;;2.92;1.73;;;11.90;27.20;;;;;;5033536;28;20049;-69
2021/03/20 13:33:06;;;;;;;6.47;2.55;;;11.90;27.70;;;;;;5032857;28;20562;-69
2021/03/20 13:35:35;;;;;;;4.45;1.90;;;12.60;27.50;;;;;;5033385;28;20048;-69
2021/03/20 13:38:03;;;;;;;7.10;3.65;;;13.60;27.10;;;;;;5030969;28;21629;-71
2021/03/20 13:40:31;;;;;;;3.08;1.70;;;14.50;26.80;;;;;;5030461;28;20049;-69
2021/03/20 13:42:57;;;;;;;6.53;1.42;;;14.80;26.60;;;;;;5033528;28;20072;-69